Time;durP1;ratioP1;P1;durP2;ratioP2;P2;SDS_P1;SDS_P2;PMS_P1;PMS_P2;Temp;Humidity;BMP_temperature;BMP_pressure;BME280_temperature;BME280_humidity;BME280_pressure;Samples;Min_cycle;Max_cycle;Signal;HPM_P1;HPM_P2
2023/04/29 00:00:26;;;;;;;39.45;26.98;;;;;;;;;;5280978;28;20028;-72
2023/04/29 00:02:57;;;;;;;37.20;27.55;;;;;;;;;;5280962;28;20259;-72
2023/04/29 00:05:28;;;;;;;37.10;28.00;;;;;;;;;;5281708;28;20036;-72
2023/04/29 00:07:59;;;;;;;35.72;27.92;;;;;;;;;;5280431;28;20262;-72
2023/04/29 00:10:31;;;;;;;34.20;26.10;;;;;;;;;;5281546;28;20021;-72
2023/04/29 00:13:02;;;;;;;36.03;26.10;;;;;;;;;;5281466;28;20044;-71
2023/04/29 00:15:33;;;;;;;32.92;25.88;;;;;;;;;;5280468;28;20036;-72
2023/04/29 00:18:04;;;;;;;34.95;27.10;;;;;;;;;;5281656;28;20138;-72
2023/04/29 00:20:39;;;;;;;31.02;26.30;;;;;;;;;;5280948;28;20016;-72
2023/04/29 00:23:10;;;;;;;32.67;25.83;;;;;;;;;;5281723;28;20016;-71
2023/04/29 00:25:41;;;;;;;31.20;25.45;;;;;;;;;;5281042;28;20468;-72
2023/04/29 00:28:13;;;;;;;30.02;24.80;;;;;;;;;;5280782;28;20021;-72
2023/04/29 00:30:44;;;;;;;32.63;26.33;;;;;;;;;;5280879;28;20753;-72
2023/04/29 00:33:15;;;;;;;31.30;26.27;;;;;;;;;;5281315;28;20474;-72
2023/04/29 00:35:46;;;;;;;31.80;25.08;;;;;;;;;;5280112;28;20418;-72
2023/04/29 00:38:18;;;;;;;29.35;24.70;;;;;;;;;;5281634;28;20032;-72
2023/04/29 00:40:49;;;;;;;26.55;23.65;;;;;;;;;;5281931;28;20048;-72
2023/04/29 00:43:20;;;;;;;28.23;23.60;;;;;;;;;;5284114;28;20028;-72
2023/04/29 00:45:53;;;;;;;27.63;23.63;;;;;;;;;;5284418;28;20051;-73
2023/04/29 00:48:25;;;;;;;26.05;23.25;;;;;;;;;;5284961;28;20035;-73
2023/04/29 00:50:56;;;;;;;25.25;22.42;;;;;;;;;;5283504;28;20052;-72
2023/04/29 00:53:28;;;;;;;23.35;20.92;;;;;;;;;;5284756;28;20080;-72
2023/04/29 00:55:59;;;;;;;23.23;20.73;;;;;;;;;;5283797;28;20079;-72
2023/04/29 00:58:34;;;;;;;25.42;22.10;;;;;;;;;;5284342;28;20058;-73
2023/04/29 01:01:05;;;;;;;23.70;20.95;;;;;;;;;;5284216;28;20048;-72
2023/04/29 01:03:37;;;;;;;21.45;19.25;;;;;;;;;;5283725;28;20490;-72
2023/04/29 01:06:14;;;;;;;21.30;19.13;;;;;;;;;;5285287;28;20023;-72
2023/04/29 01:08:45;;;;;;;21.13;18.83;;;;;;;;;;5284543;28;20009;-73
2023/04/29 01:11:22;;;;;;;22.70;20.42;;;;;;;;;;5284163;28;20521;-72
2023/04/29 01:13:57;;;;;;;22.00;19.70;;;;;;;;;;5284074;28;20830;-72
2023/04/29 01:16:43;;;;;;;22.90;20.42;;;;;;;;;;5284859;28;20038;-72
2023/04/29 01:19:21;;;;;;;20.88;18.75;;;;;;;;;;5284404;28;20078;-72
2023/04/29 01:21:52;;;;;;;21.85;19.55;;;;;;;;;;5284008;28;20410;-72
2023/04/29 01:24:24;;;;;;;22.08;18.85;;;;;;;;;;5283737;28;20035;-73
2023/04/29 01:26:56;;;;;;;22.95;20.42;;;;;;;;;;5284012;28;20013;-72
2023/04/29 01:29:34;;;;;;;26.55;21.73;;;;;;;;;;5284482;28;20013;-72
2023/04/29 01:32:08;;;;;;;22.95;20.65;;;;;;;;;;5283335;28;20099;-72
2023/04/29 01:34:53;;;;;;;22.95;20.52;;;;;;;;;;5283504;28;20059;-73
2023/04/29 01:37:48;;;;;;;24.88;21.55;;;;;;;;;;5284820;28;20364;-73
2023/04/29 01:40:22;;;;;;;22.88;20.45;;;;;;;;;;5283531;28;20060;-71
2023/04/29 01:42:58;;;;;;;24.15;21.55;;;;;;;;;;5283655;28;20103;-71
2023/04/29 01:45:31;;;;;;;23.50;21.10;;;;;;;;;;5282978;28;20023;-71
2023/04/29 01:48:03;;;;;;;28.23;22.52;;;;;;;;;;5283853;28;20056;-71
2023/04/29 01:50:34;;;;;;;27.23;23.67;;;;;;;;;;5283848;28;20029;-72
2023/04/29 01:53:06;;;;;;;28.63;22.33;;;;;;;;;;5282588;28;20028;-72
2023/04/29 01:55:37;;;;;;;22.90;20.48;;;;;;;;;;5283474;28;20407;-73
2023/04/29 01:58:09;;;;;;;24.65;21.23;;;;;;;;;;5283927;28;20020;-72
2023/04/29 02:00:41;;;;;;;24.23;21.38;;;;;;;;;;5282464;28;20051;-73
2023/04/29 02:03:12;;;;;;;26.92;22.90;;;;;;;;;;5283888;28;20016;-72
2023/04/29 02:05:43;;;;;;;25.42;21.48;;;;;;;;;;5283113;28;20031;-72
2023/04/29 02:08:15;;;;;;;27.63;22.77;;;;;;;;;;5282970;28;20134;-72
2023/04/29 02:10:57;;;;;;;27.85;22.45;;;;;;;;;;5283234;28;20028;-72
2023/04/29 02:13:28;;;;;;;27.58;23.33;;;;;;;;;;5282468;28;20021;-72
2023/04/29 02:16:13;;;;;;;28.40;24.27;;;;;;;;;;5282719;28;20386;-72
2023/04/29 02:18:44;;;;;;;28.33;23.52;;;;;;;;;;5282488;28;20024;-72
2023/04/29 02:21:15;;;;;;;25.60;22.33;;;;;;;;;;5282322;28;20029;-72
2023/04/29 02:23:46;;;;;;;29.40;23.65;;;;;;;;;;5282764;28;20263;-72
2023/04/29 02:26:17;;;;;;;27.63;22.52;;;;;;;;;;5283423;28;20101;-72
2023/04/29 02:28:49;;;;;;;26.08;22.75;;;;;;;;;;5281932;28;20103;-72
2023/04/29 02:31:20;;;;;;;28.73;24.23;;;;;;;;;;5283572;28;20259;-72
2023/04/29 02:33:51;;;;;;;30.98;25.40;;;;;;;;;;5282619;28;20024;-72
2023/04/29 02:36:23;;;;;;;31.98;23.77;;;;;;;;;;5282577;28;20422;-71
2023/04/29 02:38:55;;;;;;;29.33;23.40;;;;;;;;;;5282414;28;20085;-72
2023/04/29 02:41:26;;;;;;;32.35;24.63;;;;;;;;;;5282251;28;20028;-72
2023/04/29 02:43:57;;;;;;;30.40;26.27;;;;;;;;;;5282353;28;20077;-72
2023/04/29 02:46:28;;;;;;;32.65;26.13;;;;;;;;;;5282950;28;20528;-72
2023/04/29 02:49:00;;;;;;;32.33;27.02;;;;;;;;;;5281413;28;20016;-72
2023/04/29 02:51:32;;;;;;;33.58;26.33;;;;;;;;;;5282457;28;20016;-73
2023/04/29 02:54:03;;;;;;;30.30;25.95;;;;;;;;;;5282154;28;20060;-72
2023/04/29 02:56:34;;;;;;;33.38;26.33;;;;;;;;;;5281718;28;20496;-72
2023/04/29 02:59:05;;;;;;;36.35;27.27;;;;;;;;;;5282409;28;20101;-72
2023/04/29 03:01:37;;;;;;;36.17;28.98;;;;;;;;;;5282433;28;20271;-72
2023/04/29 03:04:08;;;;;;;32.35;26.77;;;;;;;;;;5281113;28;20031;-71
2023/04/29 03:06:40;;;;;;;32.70;26.40;;;;;;;;;;5281714;28;20028;-72
2023/04/29 03:09:13;;;;;;;34.67;26.25;;;;;;;;;;5282771;28;20097;-71
2023/04/29 03:11:44;;;;;;;33.17;25.77;;;;;;;;;;5281334;28;20479;-70
2023/04/29 03:14:15;;;;;;;34.60;26.92;;;;;;;;;;5282242;28;20100;-71
2023/04/29 03:16:47;;;;;;;31.85;25.73;;;;;;;;;;5280945;28;20004;-71
2023/04/29 03:19:18;;;;;;;33.53;26.52;;;;;;;;;;5282318;28;20482;-71
2023/04/29 03:21:49;;;;;;;34.22;26.00;;;;;;;;;;5282022;28;20021;-71
2023/04/29 03:24:20;;;;;;;31.60;24.70;;;;;;;;;;5281787;28;20032;-71
2023/04/29 03:26:52;;;;;;;36.40;26.55;;;;;;;;;;5281841;28;20016;-72
2023/04/29 03:29:24;;;;;;;33.33;26.58;;;;;;;;;;5282281;28;20012;-71
2023/04/29 03:31:55;;;;;;;33.80;27.70;;;;;;;;;;5281154;28;20028;-72
2023/04/29 03:34:27;;;;;;;33.92;25.63;;;;;;;;;;5282012;28;20104;-72
2023/04/29 03:36:58;;;;;;;30.38;24.75;;;;;;;;;;5281345;28;20552;-72
2023/04/29 03:39:31;;;;;;;32.22;25.55;;;;;;;;;;5280805;28;20068;-72
2023/04/29 03:42:03;;;;;;;30.90;23.30;;;;;;;;;;5281545;28;20341;-72
2023/04/29 03:44:34;;;;;;;34.03;25.30;;;;;;;;;;5280853;28;20016;-71
2023/04/29 03:47:06;;;;;;;30.85;23.95;;;;;;;;;;5281500;28;20070;-72
2023/04/29 03:49:37;;;;;;;31.42;23.48;;;;;;;;;;5281381;28;20087;-73
2023/04/29 03:52:08;;;;;;;31.95;23.85;;;;;;;;;;5280832;28;20048;-72
2023/04/29 03:54:39;;;;;;;31.95;24.58;;;;;;;;;;5280782;28;20053;-72
2023/04/29 03:57:10;;;;;;;32.25;22.50;;;;;;;;;;5281801;28;20044;-71
2023/04/29 03:59:42;;;;;;;26.08;21.58;;;;;;;;;;5280620;28;20020;-71
2023/04/29 04:02:13;;;;;;;30.27;22.15;;;;;;;;;;5281811;28;20016;-73
2023/04/29 04:04:44;;;;;;;30.23;23.08;;;;;;;;;;5281070;28;20452;-72
2023/04/29 04:07:15;;;;;;;36.05;25.33;;;;;;;;;;5281102;28;20020;-72
2023/04/29 04:09:46;;;;;;;31.90;24.62;;;;;;;;;;5281237;28;20044;-72
2023/04/29 04:12:18;;;;;;;27.73;22.02;;;;;;;;;;5281776;28;20126;-72
2023/04/29 04:14:49;;;;;;;29.55;22.52;;;;;;;;;;5280235;28;20123;-72
2023/04/29 04:17:20;;;;;;;26.10;20.77;;;;;;;;;;5285458;28;20074;-72
2023/04/29 04:19:51;;;;;;;25.63;19.95;;;;;;;;;;5284561;28;20471;-72
2023/04/29 04:22:23;;;;;;;26.30;21.85;;;;;;;;;;5285530;28;20017;-72
2023/04/29 04:24:54;;;;;;;26.88;20.65;;;;;;;;;;5285078;28;20012;-72
2023/04/29 04:27:25;;;;;;;25.25;18.95;;;;;;;;;;5284972;28;20086;-72
2023/04/29 04:29:56;;;;;;;25.98;20.63;;;;;;;;;;5284762;28;20029;-72
2023/04/29 04:32:28;;;;;;;25.14;20.12;;;;;;;;;;5285644;28;20042;-72
2023/04/29 04:34:59;;;;;;;26.50;20.50;;;;;;;;;;5283856;28;20024;-72
2023/04/29 04:37:30;;;;;;;25.30;19.35;;;;;;;;;;5285120;28;20467;-72
2023/04/29 04:40:01;;;;;;;24.15;19.48;;;;;;;;;;5285050;28;20024;-72
2023/04/29 04:42:32;;;;;;;23.48;19.08;;;;;;;;;;5284247;28;20501;-73
2023/04/29 04:45:04;;;;;;;24.33;20.38;;;;;;;;;;5285056;28;20028;-72
2023/04/29 04:47:35;;;;;;;21.35;18.98;;;;;;;;;;5285080;28;20040;-72
2023/04/29 04:50:07;;;;;;;23.48;19.27;;;;;;;;;;5284099;28;20020;-73
2023/04/29 04:52:39;;;;;;;24.52;18.33;;;;;;;;;;5284461;28;20031;-73
2023/04/29 04:55:10;;;;;;;26.25;18.85;;;;;;;;;;5284064;28;20360;-72
2023/04/29 04:57:41;;;;;;;22.60;18.88;;;;;;;;;;5284516;28;20048;-73
2023/04/29 05:00:12;;;;;;;22.98;18.45;;;;;;;;;;5284890;28;20518;-72
2023/04/29 05:02:44;;;;;;;22.50;17.92;;;;;;;;;;5283223;28;20016;-73
2023/04/29 05:05:15;;;;;;;22.48;17.98;;;;;;;;;;5284725;28;20024;-72
2023/04/29 05:07:46;;;;;;;21.92;17.92;;;;;;;;;;5284260;28;20020;-73
2023/04/29 05:10:17;;;;;;;20.92;17.33;;;;;;;;;;5284063;28;20023;-72
2023/04/29 05:12:48;;;;;;;21.63;17.80;;;;;;;;;;5284122;28;20059;-72
2023/04/29 05:15:20;;;;;;;22.83;17.25;;;;;;;;;;5284575;28;20038;-72
2023/04/29 05:17:51;;;;;;;21.65;17.67;;;;;;;;;;5283082;28;20013;-72
2023/04/29 05:20:22;;;;;;;19.30;16.88;;;;;;;;;;5284630;28;20028;-72
2023/04/29 05:22:53;;;;;;;19.70;16.52;;;;;;;;;;5283332;28;20096;-73
2023/04/29 05:25:24;;;;;;;20.65;17.67;;;;;;;;;;5284276;28;20070;-72
2023/04/29 05:27:56;;;;;;;21.15;17.95;;;;;;;;;;5283200;28;20008;-72
2023/04/29 05:30:27;;;;;;;19.48;16.98;;;;;;;;;;5283546;28;20113;-72
2023/04/29 05:32:58;;;;;;;18.67;16.65;;;;;;;;;;5283566;28;20043;-72
2023/04/29 05:35:30;;;;;;;20.58;16.52;;;;;;;;;;5283625;28;20032;-73
2023/04/29 05:38:02;;;;;;;20.98;16.65;;;;;;;;;;5282689;28;20027;-72
2023/04/29 05:40:33;;;;;;;20.00;16.90;;;;;;;;;;5283568;28;20391;-72
2023/04/29 05:43:04;;;;;;;19.13;16.98;;;;;;;;;;5283448;28;20077;-72
2023/04/29 05:45:36;;;;;;;19.35;15.73;;;;;;;;;;5283049;28;20431;-72
2023/04/29 05:48:07;;;;;;;18.27;16.38;;;;;;;;;;5283548;28;20024;-72
2023/04/29 05:50:38;;;;;;;18.83;16.83;;;;;;;;;;5283120;28;20255;-72
2023/04/29 05:53:10;;;;;;;18.20;16.25;;;;;;;;;;5282566;28;20405;-72
2023/04/29 05:55:43;;;;;;;19.80;15.38;;;;;;;;;;5283182;28;20107;-73
2023/04/29 05:58:14;;;;;;;18.60;16.27;;;;;;;;;;5282835;28;20013;-72
2023/04/29 06:00:48;;;;;;;18.55;16.33;;;;;;;;;;5283133;28;20592;-72
2023/04/29 06:03:19;;;;;;;22.63;15.68;;;;;;;;;;5283542;28;20511;-72
2023/04/29 06:05:50;;;;;;;19.85;16.60;;;;;;;;;;5282035;28;20096;-72
2023/04/29 06:08:21;;;;;;;16.83;14.80;;;;;;;;;;5283464;28;20024;-72
2023/04/29 06:10:53;;;;;;;18.85;15.50;;;;;;;;;;5282893;28;20062;-73
2023/04/29 06:13:25;;;;;;;16.90;15.10;;;;;;;;;;5282856;28;20514;-72
2023/04/29 06:15:56;;;;;;;17.98;15.02;;;;;;;;;;5283082;28;20024;-72
2023/04/29 06:18:27;;;;;;;19.40;16.67;;;;;;;;;;5283843;28;20103;-72
2023/04/29 06:20:58;;;;;;;17.13;14.68;;;;;;;;;;5281863;28;20028;-72
2023/04/29 06:23:31;;;;;;;18.13;14.93;;;;;;;;;;5282931;28;20354;-73
2023/04/29 06:26:02;;;;;;;19.40;15.63;;;;;;;;;;5282773;28;20099;-74
2023/04/29 06:28:33;;;;;;;18.48;15.18;;;;;;;;;;5281826;28;20092;-72
2023/04/29 06:31:05;;;;;;;20.38;15.38;;;;;;;;;;5282780;28;20024;-72
2023/04/29 06:33:36;;;;;;;16.58;14.43;;;;;;;;;;5281647;28;20025;-72
2023/04/29 06:36:07;;;;;;;15.82;14.18;;;;;;;;;;5282414;28;20017;-72
2023/04/29 06:38:38;;;;;;;17.30;15.45;;;;;;;;;;5281267;28;20029;-73
2023/04/29 06:41:09;;;;;;;19.67;16.20;;;;;;;;;;5281727;28;20048;-72
2023/04/29 06:43:42;;;;;;;16.75;14.95;;;;;;;;;;5282251;28;20025;-73
2023/04/29 06:46:13;;;;;;;16.58;14.10;;;;;;;;;;5282629;28;20017;-72
2023/04/29 06:48:44;;;;;;;17.98;14.13;;;;;;;;;;5281184;28;20032;-72
2023/04/29 06:51:16;;;;;;;15.30;13.70;;;;;;;;;;5282389;28;20021;-72
2023/04/29 06:53:47;;;;;;;16.75;14.38;;;;;;;;;;5281853;28;20132;-72
2023/04/29 06:56:18;;;;;;;17.20;14.68;;;;;;;;;;5282041;28;20099;-72
2023/04/29 06:58:49;;;;;;;16.67;14.60;;;;;;;;;;5281912;28;20266;-72
2023/04/29 07:01:20;;;;;;;16.60;13.95;;;;;;;;;;5281973;28;20274;-73
2023/04/29 07:03:52;;;;;;;17.10;14.05;;;;;;;;;;5281545;28;20016;-73
2023/04/29 07:06:23;;;;;;;15.13;13.52;;;;;;;;;;5282797;28;20103;-73
2023/04/29 07:08:54;;;;;;;18.67;13.63;;;;;;;;;;5281384;28;20263;-73
2023/04/29 07:11:26;;;;;;;16.00;14.07;;;;;;;;;;5282503;28;20024;-73
2023/04/29 07:13:57;;;;;;;16.40;14.02;;;;;;;;;;5281946;28;20452;-75
2023/04/29 07:16:28;;;;;;;17.67;15.07;;;;;;;;;;5281818;28;20025;-73
2023/04/29 07:18:59;;;;;;;17.33;14.13;;;;;;;;;;5281685;28;20074;-73
2023/04/29 07:21:31;;;;;;;16.50;13.35;;;;;;;;;;5281755;28;20285;-73
2023/04/29 07:24:03;;;;;;;17.25;14.57;;;;;;;;;;5280729;28;20024;-74
2023/04/29 07:26:35;;;;;;;14.55;12.55;;;;;;;;;;5281963;28;20031;-74
2023/04/29 07:29:06;;;;;;;20.45;14.15;;;;;;;;;;5282236;28;20025;-73
2023/04/29 07:31:37;;;;;;;16.80;13.85;;;;;;;;;;5280973;28;20016;-74
2023/04/29 07:34:08;;;;;;;16.13;13.50;;;;;;;;;;5281846;28;20039;-73
2023/04/29 07:36:39;;;;;;;20.00;14.98;;;;;;;;;;5280359;28;20137;-73
2023/04/29 07:39:13;;;;;;;16.40;12.98;;;;;;;;;;5281436;28;20013;-72
2023/04/29 07:41:45;;;;;;;16.33;12.43;;;;;;;;;;5281096;28;20362;-72
2023/04/29 07:44:16;;;;;;;15.45;13.50;;;;;;;;;;5281162;28;20020;-72
2023/04/29 07:46:47;;;;;;;14.98;13.05;;;;;;;;;;5281011;28;20016;-72
2023/04/29 07:49:18;;;;;;;15.55;13.45;;;;;;;;;;5281422;28;20028;-72
2023/04/29 07:51:49;;;;;;;14.57;12.85;;;;;;;;;;5280040;28;20036;-73
2023/04/29 07:54:21;;;;;;;14.38;11.63;;;;;;;;;;5281335;28;20059;-72
2023/04/29 07:56:52;;;;;;;13.93;12.32;;;;;;;;;;5280887;28;20362;-72
2023/04/29 07:59:23;;;;;;;19.20;13.63;;;;;;;;;;5277040;28;20523;-73
2023/04/29 08:01:54;;;;;;;15.90;13.48;;;;;;;;;;5280967;28;20270;-72
2023/04/29 08:04:25;;;;;;;14.63;11.83;;;;;;;;;;5281514;28;20267;-73
2023/04/29 08:06:57;;;;;;;16.70;13.65;;;;;;;;;;5279858;28;20270;-72
2023/04/29 08:09:28;;;;;;;15.63;13.10;;;;;;;;;;5281256;28;20538;-72
2023/04/29 08:12:00;;;;;;;14.52;12.18;;;;;;;;;;5279903;28;20021;-72
2023/04/29 08:14:32;;;;;;;15.38;12.88;;;;;;;;;;5281132;28;20033;-73
2023/04/29 08:17:03;;;;;;;15.48;12.85;;;;;;;;;;5281212;28;20391;-72
2023/04/29 08:19:34;;;;;;;14.15;12.45;;;;;;;;;;5280634;28;20051;-72
2023/04/29 08:22:05;;;;;;;17.15;12.45;;;;;;;;;;5280986;28;20044;-72
2023/04/29 08:24:37;;;;;;;13.43;12.05;;;;;;;;;;5281139;28;20371;-72
2023/04/29 08:27:08;;;;;;;16.35;11.73;;;;;;;;;;5280346;28;20020;-72
2023/04/29 08:29:39;;;;;;;14.00;12.15;;;;;;;;;;5280342;28;20016;-72
2023/04/29 08:32:11;;;;;;;15.27;11.77;;;;;;;;;;5281107;28;20017;-72
2023/04/29 08:34:43;;;;;;;12.77;11.15;;;;;;;;;;5279981;28;20502;-73
2023/04/29 08:37:15;;;;;;;14.93;10.80;;;;;;;;;;5280803;28;20100;-72
2023/04/29 08:39:46;;;;;;;10.77;9.77;;;;;;;;;;5280309;28;20044;-71
2023/04/29 08:42:20;;;;;;;11.02;9.98;;;;;;;;;;5280633;28;20029;-72
2023/04/29 08:44:51;;;;;;;10.90;9.80;;;;;;;;;;5280702;28;20020;-72
2023/04/29 08:47:23;;;;;;;11.02;9.55;;;;;;;;;;5280767;28;20024;-72
2023/04/29 08:49:54;;;;;;;11.43;9.55;;;;;;;;;;5280670;28;20030;-72
2023/04/29 08:52:25;;;;;;;12.25;9.05;;;;;;;;;;5281132;28;20383;-73
2023/04/29 08:54:57;;;;;;;10.98;9.68;;;;;;;;;;5279213;28;20852;-72
2023/04/29 08:57:29;;;;;;;11.15;8.73;;;;;;;;;;5280744;28;20013;-72
2023/04/29 09:00:00;;;;;;;11.25;10.15;;;;;;;;;;5280302;28;20039;-72
2023/04/29 09:02:32;;;;;;;12.43;10.80;;;;;;;;;;5282343;28;20013;-72
2023/04/29 09:05:07;;;;;;;11.82;9.85;;;;;;;;;;5284116;28;20057;-73
2023/04/29 09:07:39;;;;;;;10.95;8.75;;;;;;;;;;5283839;28;20100;-73
2023/04/29 09:10:10;;;;;;;10.93;8.73;;;;;;;;;;5283997;28;20419;-72
2023/04/29 09:12:41;;;;;;;9.50;8.35;;;;;;;;;;5283810;28;20017;-73
2023/04/29 09:15:13;;;;;;;9.15;8.23;;;;;;;;;;5283509;28;20471;-72
2023/04/29 09:17:45;;;;;;;11.98;8.88;;;;;;;;;;5283865;28;20095;-72
2023/04/29 09:20:20;;;;;;;9.57;8.00;;;;;;;;;;5284234;28;20032;-69
2023/04/29 09:22:52;;;;;;;10.02;7.20;;;;;;;;;;5282792;28;20078;-69
2023/04/29 09:25:23;;;;;;;8.98;5.90;;;;;;;;;;5284203;28;20025;-69
2023/04/29 09:27:54;;;;;;;8.93;6.15;;;;;;;;;;5282859;28;20031;-70
2023/04/29 09:30:28;;;;;;;8.07;5.85;;;;;;;;;;5283571;28;20021;-70
2023/04/29 09:33:03;;;;;;;8.23;5.75;;;;;;;;;;5283608;28;20031;-69
2023/04/29 09:35:35;;;;;;;6.85;4.85;;;;;;;;;;5283480;28;20025;-70
2023/04/29 09:38:09;;;;;;;7.43;4.90;;;;;;;;;;5282389;28;20023;-70
2023/04/29 09:40:42;;;;;;;7.68;4.97;;;;;;;;;;5283049;28;20024;-70
2023/04/29 09:43:14;;;;;;;6.97;4.80;;;;;;;;;;5283385;28;20353;-70
2023/04/29 09:45:46;;;;;;;9.25;6.18;;;;;;;;;;5283741;28;20107;-70
2023/04/29 09:48:18;;;;;;;8.15;5.82;;;;;;;;;;5283780;28;20016;-70
2023/04/29 09:51:00;;;;;;;7.63;5.75;;;;;;;;;;5281663;28;20043;-70
2023/04/29 09:53:32;;;;;;;7.22;4.68;;;;;;;;;;5283139;28;20128;-70
2023/04/29 09:56:04;;;;;;;8.27;5.65;;;;;;;;;;5283105;28;20116;-69
2023/04/29 09:58:39;;;;;;;7.40;5.20;;;;;;;;;;5282645;28;20036;-68
2023/04/29 10:01:12;;;;;;;7.47;5.80;;;;;;;;;;5283251;28;20020;-69
2023/04/29 10:03:44;;;;;;;7.45;6.63;;;;;;;;;;5283004;28;20421;-75
2023/04/29 10:06:15;;;;;;;7.25;5.80;;;;;;;;;;5281174;28;20093;-75
2023/04/29 10:08:47;;;;;;;7.50;5.78;;;;;;;;;;5282181;28;20483;-75
2023/04/29 10:11:19;;;;;;;7.05;5.45;;;;;;;;;;5281068;28;20020;-75
2023/04/29 10:13:51;;;;;;;6.45;5.70;;;;;;;;;;5280533;28;20057;-75
2023/04/29 10:16:26;;;;;;;7.20;5.00;;;;;;;;;;5281082;28;20013;-75
2023/04/29 10:18:58;;;;;;;7.63;5.80;;;;;;;;;;5279563;28;20043;-75
2023/04/29 10:21:30;;;;;;;7.00;5.13;;;;;;;;;;5280663;28;20082;-75
2023/04/29 10:24:02;;;;;;;6.22;5.63;;;;;;;;;;5280498;28;20068;-75
2023/04/29 10:26:36;;;;;;;9.35;6.18;;;;;;;;;;5282148;28;20071;-75
2023/04/29 10:29:09;;;;;;;7.75;5.38;;;;;;;;;;5282756;28;20502;-75
2023/04/29 10:31:41;;;;;;;9.13;6.22;;;;;;;;;;5282410;28;20475;-74
2023/04/29 10:34:15;;;;;;;6.72;5.40;;;;;;;;;;5281852;28;20027;-75
2023/04/29 10:36:47;;;;;;;6.75;5.88;;;;;;;;;;5282155;28;20451;-74
2023/04/29 10:39:22;;;;;;;8.75;5.30;;;;;;;;;;5282677;28;20028;-74
2023/04/29 10:41:53;;;;;;;6.50;4.90;;;;;;;;;;5281506;28;20464;-75
2023/04/29 10:44:24;;;;;;;9.68;5.90;;;;;;;;;;5282329;28;20036;-74
2023/04/29 10:47:14;;;;;;;6.87;5.20;;;;;;;;;;5281011;28;20027;-75
2023/04/29 10:50:04;;;;;;;8.13;5.85;;;;;;;;;;5281980;28;20646;-74
2023/04/29 10:52:50;;;;;;;6.53;5.20;;;;;;;;;;5281809;28;20028;-74
2023/04/29 10:55:22;;;;;;;5.80;5.20;;;;;;;;;;5281326;28;20556;-74
2023/04/29 10:57:55;;;;;;;6.55;5.75;;;;;;;;;;5281897;28;20020;-75
2023/04/29 11:00:27;;;;;;;6.80;4.60;;;;;;;;;;5282205;28;20070;-75
2023/04/29 11:03:04;;;;;;;7.43;4.75;;;;;;;;;;5281200;28;20025;-75
2023/04/29 11:05:36;;;;;;;6.60;4.97;;;;;;;;;;5281661;28;20378;-74
2023/04/29 11:08:22;;;;;;;5.38;4.75;;;;;;;;;;5281171;28;20017;-74
2023/04/29 11:10:53;;;;;;;5.90;4.28;;;;;;;;;;5281509;28;20032;-75
2023/04/29 11:13:25;;;;;;;5.82;4.47;;;;;;;;;;5282042;28;20025;-75
2023/04/29 11:16:06;;;;;;;6.18;5.00;;;;;;;;;;5280477;28;20013;-75
2023/04/29 11:19:11;;;;;;;7.00;4.80;;;;;;;;;;5281337;28;20485;-74
2023/04/29 11:21:43;;;;;;;5.60;4.47;;;;;;;;;;5257699;28;20037;-75
2023/04/29 11:24:15;;;;;;;6.25;4.97;;;;;;;;;;5281085;28;20036;-74
2023/04/29 11:26:47;;;;;;;6.25;5.10;;;;;;;;;;5281385;28;20463;-75
2023/04/29 11:29:20;;;;;;;6.90;4.85;;;;;;;;;;5281120;28;20407;-74
2023/04/29 11:31:57;;;;;;;7.30;5.53;;;;;;;;;;5281165;28;20355;-74
2023/04/29 11:34:28;;;;;;;6.85;5.25;;;;;;;;;;5281778;28;20027;-74
2023/04/29 11:36:59;;;;;;;6.68;4.28;;;;;;;;;;5280638;28;20091;-74
2023/04/29 11:39:34;;;;;;;5.03;4.30;;;;;;;;;;5281328;28;20112;-74
2023/04/29 11:42:06;;;;;;;5.70;4.13;;;;;;;;;;5281332;28;20066;-74
2023/04/29 11:44:37;;;;;;;5.03;3.72;;;;;;;;;;5280032;28;20036;-74
2023/04/29 11:47:08;;;;;;;5.70;4.07;;;;;;;;;;5281518;28;20443;-74
2023/04/29 11:49:41;;;;;;;6.50;4.10;;;;;;;;;;5281234;28;20074;-74
2023/04/29 11:52:12;;;;;;;7.53;4.63;;;;;;;;;;5280782;28;20259;-74
2023/04/29 11:54:46;;;;;;;6.53;3.53;;;;;;;;;;5280590;28;20048;-74
2023/04/29 11:57:17;;;;;;;4.97;4.43;;;;;;;;;;5280650;28;20278;-74
2023/04/29 11:59:48;;;;;;;8.70;4.20;;;;;;;;;;5280833;28;20020;-74
2023/04/29 12:02:30;;;;;;;4.82;3.67;;;;;;;;;;5282082;28;20341;-74
2023/04/29 12:05:05;;;;;;;6.70;3.70;;;;;;;;;;5280412;28;20499;-74
2023/04/29 12:07:37;;;;;;;6.15;3.13;;;;;;;;;;5281115;28;20051;-74
2023/04/29 12:10:09;;;;;;;5.10;3.65;;;;;;;;;;5281003;28;20044;-74
2023/04/29 12:12:42;;;;;;;5.95;3.15;;;;;;;;;;5280533;28;20529;-74
2023/04/29 12:15:13;;;;;;;4.50;3.13;;;;;;;;;;5281737;28;20017;-74
2023/04/29 12:17:46;;;;;;;6.13;3.42;;;;;;;;;;5281133;28;20016;-74
2023/04/29 12:20:17;;;;;;;3.20;2.80;;;;;;;;;;5280391;28;20028;-74
2023/04/29 12:22:48;;;;;;;3.58;3.22;;;;;;;;;;5280593;28;20024;-74
2023/04/29 12:25:23;;;;;;;6.78;3.08;;;;;;;;;;5280344;28;20112;-74
2023/04/29 12:27:58;;;;;;;4.75;3.10;;;;;;;;;;5280580;28;20020;-74
2023/04/29 12:30:29;;;;;;;6.82;3.35;;;;;;;;;;5280591;28;20344;-75
2023/04/29 12:33:01;;;;;;;4.00;2.67;;;;;;;;;;5279980;28;20023;-75
2023/04/29 12:35:32;;;;;;;3.85;2.58;;;;;;;;;;5281021;28;20028;-78
2023/04/29 12:38:03;;;;;;;5.10;3.60;;;;;;;;;;5284304;28;20024;-73
2023/04/29 12:40:34;;;;;;;5.43;2.88;;;;;;;;;;5284050;28;20066;-73
2023/04/29 12:43:07;;;;;;;3.40;2.03;;;;;;;;;;5284730;28;20067;-73
2023/04/29 12:45:38;;;;;;;3.88;2.53;;;;;;;;;;5284134;28;20476;-78
2023/04/29 12:48:10;;;;;;;2.95;2.65;;;;;;;;;;5284429;28;20032;-77
2023/04/29 12:50:41;;;;;;;3.53;2.55;;;;;;;;;;5281369;28;20042;-75
2023/04/29 12:53:12;;;;;;;4.18;2.80;;;;;;;;;;5283831;28;20012;-74
2023/04/29 12:55:44;;;;;;;3.10;2.13;;;;;;;;;;5284352;28;20032;-75
2023/04/29 12:58:15;;;;;;;4.88;2.72;;;;;;;;;;5284575;28;20270;-75
2023/04/29 13:00:46;;;;;;;4.30;3.13;;;;;;;;;;5283232;28;20024;-76
2023/04/29 13:03:17;;;;;;;3.45;2.65;;;;;;;;;;5284695;28;20024;-75
2023/04/29 13:05:52;;;;;;;4.00;2.67;;;;;;;;;;5284451;28;20487;-75
2023/04/29 13:08:23;;;;;;;3.05;2.28;;;;;;;;;;5284127;28;20048;-76
2023/04/29 13:10:54;;;;;;;2.92;2.33;;;;;;;;;;5282825;28;20478;-76
2023/04/29 13:13:26;;;;;;;4.18;2.60;;;;;;;;;;5284582;28;20082;-75
2023/04/29 13:15:59;;;;;;;6.15;2.55;;;;;;;;;;5282573;28;20524;-76
2023/04/29 13:18:30;;;;;;;5.43;2.05;;;;;;;;;;5284414;28;20497;-76
2023/04/29 13:21:01;;;;;;;3.42;2.20;;;;;;;;;;5284463;28;20016;-76
2023/04/29 13:23:32;;;;;;;2.72;1.77;;;;;;;;;;5279632;28;20089;-76
2023/04/29 13:26:04;;;;;;;4.27;2.20;;;;;;;;;;5283761;28;20177;-75
2023/04/29 13:28:35;;;;;;;3.75;1.95;;;;;;;;;;5283157;28;20634;-75
2023/04/29 13:31:06;;;;;;;4.32;2.00;;;;;;;;;;5283990;28;20017;-74
2023/04/29 13:33:37;;;;;;;2.70;2.00;;;;;;;;;;5283278;28;20020;-76
2023/04/29 13:36:09;;;;;;;3.93;2.37;;;;;;;;;;5282872;28;20267;-76
2023/04/29 13:38:40;;;;;;;5.60;2.13;;;;;;;;;;5280434;28;20282;-73
2023/04/29 13:41:12;;;;;;;2.25;1.80;;;;;;;;;;5280914;28;20455;-74
2023/04/29 13:43:43;;;;;;;5.00;1.98;;;;;;;;;;5277378;28;20581;-74
2023/04/29 13:46:14;;;;;;;4.97;2.23;;;;;;;;;;5275804;28;20033;-74
2023/04/29 13:48:45;;;;;;;2.90;1.80;;;;;;;;;;5281669;28;20622;-75
2023/04/29 13:51:16;;;;;;;3.67;2.13;;;;;;;;;;5281398;28;20382;-75
2023/04/29 13:53:47;;;;;;;4.32;2.40;;;;;;;;;;5282148;28;20041;-74
2023/04/29 13:56:19;;;;;;;4.40;1.73;;;;;;;;;;5281993;28;20298;-73
2023/04/29 13:58:51;;;;;;;5.45;2.10;;;;;;;;;;5282435;28;20271;-74
2023/04/29 14:01:22;;;;;;;4.20;1.92;;;;;;;;;;5283084;28;20124;-74
2023/04/29 14:03:54;;;;;;;3.63;2.28;;;;;;;;;;5280902;28;20015;-74
2023/04/29 14:06:25;;;;;;;3.35;2.17;;;;;;;;;;5283303;28;20031;-75
2023/04/29 14:08:56;;;;;;;5.00;2.20;;;;;;;;;;5281974;28;20495;-74
2023/04/29 14:11:27;;;;;;;3.78;2.13;;;;;;;;;;5281161;28;20317;-74
2023/04/29 14:13:58;;;;;;;2.90;2.27;;;;;;;;;;5282900;28;20024;-74
2023/04/29 14:16:30;;;;;;;2.83;1.97;;;;;;;;;;5282752;28;20349;-75
2023/04/29 14:19:01;;;;;;;2.97;2.20;;;;;;;;;;5281636;28;20282;-73
2023/04/29 14:21:33;;;;;;;3.78;1.92;;;;;;;;;;5282340;28;20020;-73
2023/04/29 14:24:04;;;;;;;3.08;1.83;;;;;;;;;;5281422;28;20063;-73
2023/04/29 14:26:35;;;;;;;2.83;1.80;;;;;;;;;;5280790;28;20107;-74
2023/04/29 14:29:07;;;;;;;3.88;1.48;;;;;;;;;;5281484;28;20050;-73
2023/04/29 14:31:39;;;;;;;3.47;1.80;;;;;;;;;;5279238;28;20024;-75
2023/04/29 14:34:10;;;;;;;3.25;1.70;;;;;;;;;;5282304;28;20024;-74
2023/04/29 14:36:41;;;;;;;3.33;1.50;;;;;;;;;;5280048;28;20039;-74
2023/04/29 14:39:12;;;;;;;3.50;1.50;;;;;;;;;;5281691;28;20306;-74
2023/04/29 14:41:43;;;;;;;4.60;1.38;;;;;;;;;;5280712;28;20306;-74
2023/04/29 14:44:15;;;;;;;3.58;1.42;;;;;;;;;;5282329;28;20460;-74
2023/04/29 14:46:46;;;;;;;3.92;1.77;;;;;;;;;;5280644;28;20025;-74
2023/04/29 14:49:17;;;;;;;4.53;1.50;;;;;;;;;;5281953;28;20016;-74
2023/04/29 14:51:49;;;;;;;2.80;1.42;;;;;;;;;;5281411;28;20036;-74
2023/04/29 14:54:20;;;;;;;3.53;1.38;;;;;;;;;;5280488;28;20067;-75